sensor_id;sensor_type;location;lat;lon;timestamp;pressure;altitude;pressure_sealevel;temperature;humidity
37778;BME280;23615;51.506;7.678;2023-03-14T00:00:28;97549.88;;;11.09;87.32
37778;BME280;23615;51.506;7.678;2023-03-14T00:02:53;97560.69;;;10.99;87.81
37778;BME280;23615;51.506;7.678;2023-03-14T00:05:19;97538.03;;;10.96;88.14
37778;BME280;23615;51.506;7.678;2023-03-14T00:07:44;97538.97;;;11.05;87.37
37778;BME280;23615;51.506;7.678;2023-03-14T00:10:12;97540.78;;;10.91;88.34
37778;BME280;23615;51.506;7.678;2023-03-14T00:12:39;97538.66;;;10.88;88.13
37778;BME280;23615;51.506;7.678;2023-03-14T00:15:05;97528.72;;;10.94;88.26
37778;BME280;23615;51.506;7.678;2023-03-14T00:17:32;97540.47;;;10.93;87.76
37778;BME280;23615;51.506;7.678;2023-03-14T00:19:58;97527.59;;;11.00;87.97
37778;BME280;23615;51.506;7.678;2023-03-14T00:22:29;97525.28;;;11.12;87.03
37778;BME280;23615;51.506;7.678;2023-03-14T00:24:54;97517.91;;;11.04;87.37
37778;BME280;23615;51.506;7.678;2023-03-14T00:27:20;97522.75;;;11.02;87.09
37778;BME280;23615;51.506;7.678;2023-03-14T00:29:45;97520.94;;;10.78;88.60
37778;BME280;23615;51.506;7.678;2023-03-14T00:32:10;97521.06;;;10.87;87.68
37778;BME280;23615;51.506;7.678;2023-03-14T00:34:36;97534.41;;;10.87;88.14
37778;BME280;23615;51.506;7.678;2023-03-14T00:37:01;97539.06;;;10.76;88.18
37778;BME280;23615;51.506;7.678;2023-03-14T00:39:26;97549.41;;;10.59;89.02
37778;BME280;23615;51.506;7.678;2023-03-14T00:41:51;97546.34;;;10.71;88.38
37778;BME280;23615;51.506;7.678;2023-03-14T00:44:17;97538.88;;;10.73;88.19
37778;BME280;23615;51.506;7.678;2023-03-14T00:46:42;97559.91;;;10.74;88.36
37778;BME280;23615;51.506;7.678;2023-03-14T00:49:07;97571.47;;;10.88;87.99
37778;BME280;23615;51.506;7.678;2023-03-14T00:51:32;97561.00;;;10.73;88.29
37778;BME280;23615;51.506;7.678;2023-03-14T00:53:59;97542.00;;;10.99;87.19
37778;BME280;23615;51.506;7.678;2023-03-14T00:56:24;97533.63;;;10.86;87.34
37778;BME280;23615;51.506;7.678;2023-03-14T00:58:53;97535.50;;;11.05;86.66
37778;BME280;23615;51.506;7.678;2023-03-14T01:01:19;97526.13;;;10.88;87.02
37778;BME280;23615;51.506;7.678;2023-03-14T01:03:45;97518.66;;;10.91;87.44
37778;BME280;23615;51.506;7.678;2023-03-14T01:06:14;97519.84;;;10.79;87.41
37778;BME280;23615;51.506;7.678;2023-03-14T01:08:40;97519.63;;;10.95;87.00
37778;BME280;23615;51.506;7.678;2023-03-14T01:11:07;97523.75;;;10.87;87.53
37778;BME280;23615;51.506;7.678;2023-03-14T01:13:33;97498.59;;;10.93;87.68
37778;BME280;23615;51.506;7.678;2023-03-14T01:16:06;97510.63;;;10.91;87.54
37778;BME280;23615;51.506;7.678;2023-03-14T01:18:33;97503.50;;;11.05;87.12
37778;BME280;23615;51.506;7.678;2023-03-14T01:21:00;97514.81;;;10.97;87.43
37778;BME280;23615;51.506;7.678;2023-03-14T01:23:25;97509.84;;;11.09;87.29
37778;BME280;23615;51.506;7.678;2023-03-14T01:25:51;97515.69;;;11.11;86.50
37778;BME280;23615;51.506;7.678;2023-03-14T01:28:16;97500.53;;;11.06;87.12
37778;BME280;23615;51.506;7.678;2023-03-14T01:30:41;97521.38;;;11.04;87.15
37778;BME280;23615;51.506;7.678;2023-03-14T01:33:07;97529.75;;;11.16;88.07
37778;BME280;23615;51.506;7.678;2023-03-14T01:35:32;97549.22;;;10.98;91.96
37778;BME280;23615;51.506;7.678;2023-03-14T01:37:57;97604.44;;;10.98;93.06
37778;BME280;23615;51.506;7.678;2023-03-14T01:40:22;97631.34;;;10.77;92.57
37778;BME280;23615;51.506;7.678;2023-03-14T01:42:55;97605.16;;;10.32;94.31
37778;BME280;23615;51.506;7.678;2023-03-14T01:48:27;97567.63;;;9.94;95.72
37778;BME280;23615;51.506;7.678;2023-03-14T01:50:53;97570.28;;;9.94;95.10
37778;BME280;23615;51.506;7.678;2023-03-14T01:53:19;97581.13;;;9.74;96.09
37778;BME280;23615;51.506;7.678;2023-03-14T01:55:47;97558.63;;;9.85;96.05
37778;BME280;23615;51.506;7.678;2023-03-14T01:58:15;97545.50;;;9.65;97.51
37778;BME280;23615;51.506;7.678;2023-03-14T02:00:41;97551.50;;;9.42;98.06
37778;BME280;23615;51.506;7.678;2023-03-14T02:03:11;97545.19;;;9.32;99.64
37778;BME280;23615;51.506;7.678;2023-03-14T02:05:40;97539.38;;;9.25;100.00
37778;BME280;23615;51.506;7.678;2023-03-14T02:08:10;97545.03;;;9.19;100.00
37778;BME280;23615;51.506;7.678;2023-03-14T02:10:39;97537.31;;;9.17;100.00
37778;BME280;23615;51.506;7.678;2023-03-14T02:13:06;97522.91;;;9.23;99.74
37778;BME280;23615;51.506;7.678;2023-03-14T02:15:32;97528.00;;;9.15;100.00
37778;BME280;23615;51.506;7.678;2023-03-14T02:17:58;97524.16;;;8.92;100.00
37778;BME280;23615;51.506;7.678;2023-03-14T02:22:50;97512.75;;;8.86;100.00
37778;BME280;23615;51.506;7.678;2023-03-14T02:25:38;97523.63;;;8.90;100.00
37778;BME280;23615;51.506;7.678;2023-03-14T02:28:05;97528.47;;;8.78;100.00
37778;BME280;23615;51.506;7.678;2023-03-14T02:30:31;97530.81;;;8.89;100.00
37778;BME280;23615;51.506;7.678;2023-03-14T02:33:03;97528.91;;;8.95;100.00
37778;BME280;23615;51.506;7.678;2023-03-14T02:35:36;97540.44;;;8.75;100.00
37778;BME280;23615;51.506;7.678;2023-03-14T02:38:17;97537.47;;;8.92;100.00
37778;BME280;23615;51.506;7.678;2023-03-14T02:40:45;97527.03;;;9.00;100.00
37778;BME280;23615;51.506;7.678;2023-03-14T02:43:11;97522.00;;;8.94;100.00
37778;BME280;23615;51.506;7.678;2023-03-14T02:45:42;97520.09;;;9.05;100.00
37778;BME280;23615;51.506;7.678;2023-03-14T02:48:30;97521.50;;;8.92;100.00
37778;BME280;23615;51.506;7.678;2023-03-14T02:50:59;97525.19;;;8.96;100.00
37778;BME280;23615;51.506;7.678;2023-03-14T02:53:28;97523.81;;;9.09;100.00
37778;BME280;23615;51.506;7.678;2023-03-14T02:55:54;97519.28;;;9.04;100.00
37778;BME280;23615;51.506;7.678;2023-03-14T02:58:20;97515.34;;;8.96;100.00
37778;BME280;23615;51.506;7.678;2023-03-14T03:00:45;97517.78;;;8.88;100.00
37778;BME280;23615;51.506;7.678;2023-03-14T03:03:11;97513.44;;;9.07;100.00
37778;BME280;23615;51.506;7.678;2023-03-14T03:05:36;97510.22;;;9.10;100.00
37778;BME280;23615;51.506;7.678;2023-03-14T03:08:02;97514.75;;;9.10;100.00
37778;BME280;23615;51.506;7.678;2023-03-14T03:10:28;97513.97;;;9.09;100.00
37778;BME280;23615;51.506;7.678;2023-03-14T03:12:53;97519.50;;;9.13;100.00
37778;BME280;23615;51.506;7.678;2023-03-14T03:15:19;97514.53;;;9.01;100.00
37778;BME280;23615;51.506;7.678;2023-03-14T03:17:44;97516.03;;;9.12;100.00
37778;BME280;23615;51.506;7.678;2023-03-14T03:20:10;97502.16;;;9.20;100.00
37778;BME280;23615;51.506;7.678;2023-03-14T03:22:36;97489.44;;;9.12;100.00
37778;BME280;23615;51.506;7.678;2023-03-14T03:25:03;97496.69;;;9.01;100.00
37778;BME280;23615;51.506;7.678;2023-03-14T03:27:33;97495.13;;;8.95;100.00
37778;BME280;23615;51.506;7.678;2023-03-14T03:29:59;97489.03;;;8.95;100.00
37778;BME280;23615;51.506;7.678;2023-03-14T03:32:25;97490.44;;;9.21;100.00
37778;BME280;23615;51.506;7.678;2023-03-14T03:34:50;97475.88;;;9.14;100.00
37778;BME280;23615;51.506;7.678;2023-03-14T03:37:16;97481.84;;;9.00;100.00
37778;BME280;23615;51.506;7.678;2023-03-14T03:39:41;97486.97;;;9.26;100.00
37778;BME280;23615;51.506;7.678;2023-03-14T03:42:06;97483.03;;;9.18;99.86
37778;BME280;23615;51.506;7.678;2023-03-14T03:44:32;97484.97;;;9.08;100.00
37778;BME280;23615;51.506;7.678;2023-03-14T03:46:57;97473.25;;;9.09;100.00
37778;BME280;23615;51.506;7.678;2023-03-14T03:49:22;97479.25;;;9.24;100.00
37778;BME280;23615;51.506;7.678;2023-03-14T03:51:47;97480.31;;;9.28;100.00
37778;BME280;23615;51.506;7.678;2023-03-14T03:54:13;97479.31;;;9.19;100.00
37778;BME280;23615;51.506;7.678;2023-03-14T03:56:38;97478.22;;;9.20;100.00
37778;BME280;23615;51.506;7.678;2023-03-14T03:59:03;97477.47;;;9.15;100.00
37778;BME280;23615;51.506;7.678;2023-03-14T04:01:29;97477.91;;;9.27;99.90
37778;BME280;23615;51.506;7.678;2023-03-14T04:03:54;97476.88;;;9.23;100.00
37778;BME280;23615;51.506;7.678;2023-03-14T04:06:19;97481.00;;;9.05;100.00
37778;BME280;23615;51.506;7.678;2023-03-14T04:08:44;97485.25;;;9.06;100.00
37778;BME280;23615;51.506;7.678;2023-03-14T04:11:10;97483.06;;;9.13;100.00
37778;BME280;23615;51.506;7.678;2023-03-14T04:13:35;97489.25;;;9.43;99.28
37778;BME280;23615;51.506;7.678;2023-03-14T04:16:00;97487.69;;;9.36;100.00
37778;BME280;23615;51.506;7.678;2023-03-14T04:18:26;97482.91;;;9.33;100.00
37778;BME280;23615;51.506;7.678;2023-03-14T04:20:55;97478.66;;;9.32;100.00
37778;BME280;23615;51.506;7.678;2023-03-14T04:23:22;97481.66;;;9.26;100.00
37778;BME280;23615;51.506;7.678;2023-03-14T04:25:50;97477.19;;;9.16;100.00
37778;BME280;23615;51.506;7.678;2023-03-14T04:28:16;97485.50;;;9.10;100.00
37778;BME280;23615;51.506;7.678;2023-03-14T04:30:41;97506.91;;;9.28;100.00
37778;BME280;23615;51.506;7.678;2023-03-14T04:33:06;97469.34;;;8.96;100.00
37778;BME280;23615;51.506;7.678;2023-03-14T04:35:32;97475.78;;;8.85;100.00
37778;BME280;23615;51.506;7.678;2023-03-14T04:37:57;97473.97;;;8.80;100.00
37778;BME280;23615;51.506;7.678;2023-03-14T04:40:24;97478.16;;;8.86;100.00
37778;BME280;23615;51.506;7.678;2023-03-14T04:42:50;97482.38;;;8.97;100.00
37778;BME280;23615;51.506;7.678;2023-03-14T04:45:15;97466.78;;;8.76;100.00
37778;BME280;23615;51.506;7.678;2023-03-14T04:47:40;97477.94;;;8.83;100.00
37778;BME280;23615;51.506;7.678;2023-03-14T04:50:06;97464.34;;;8.89;100.00
37778;BME280;23615;51.506;7.678;2023-03-14T04:52:31;97460.91;;;8.84;100.00
37778;BME280;23615;51.506;7.678;2023-03-14T04:54:56;97461.56;;;8.60;100.00
37778;BME280;23615;51.506;7.678;2023-03-14T04:57:22;97458.59;;;8.67;100.00
37778;BME280;23615;51.506;7.678;2023-03-14T04:59:47;97459.22;;;8.98;100.00
37778;BME280;23615;51.506;7.678;2023-03-14T05:02:12;97455.72;;;9.08;100.00
37778;BME280;23615;51.506;7.678;2023-03-14T05:04:38;97453.84;;;9.08;100.00
37778;BME280;23615;51.506;7.678;2023-03-14T05:07:03;97439.56;;;8.99;100.00
37778;BME280;23615;51.506;7.678;2023-03-14T05:09:28;97439.28;;;9.00;100.00
37778;BME280;23615;51.506;7.678;2023-03-14T05:11:53;97430.72;;;9.09;100.00
37778;BME280;23615;51.506;7.678;2023-03-14T05:14:19;97431.50;;;9.09;100.00
37778;BME280;23615;51.506;7.678;2023-03-14T05:16:46;97422.06;;;8.88;100.00
37778;BME280;23615;51.506;7.678;2023-03-14T05:19:11;97419.88;;;9.00;100.00
37778;BME280;23615;51.506;7.678;2023-03-14T05:21:37;97412.09;;;9.09;100.00
37778;BME280;23615;51.506;7.678;2023-03-14T05:24:02;97412.75;;;8.90;100.00
37778;BME280;23615;51.506;7.678;2023-03-14T05:26:27;97420.22;;;8.88;100.00
37778;BME280;23615;51.506;7.678;2023-03-14T05:28:53;97426.13;;;9.14;100.00
37778;BME280;23615;51.506;7.678;2023-03-14T05:31:18;97429.13;;;9.08;100.00
37778;BME280;23615;51.506;7.678;2023-03-14T05:33:44;97422.31;;;8.91;100.00
37778;BME280;23615;51.506;7.678;2023-03-14T05:36:09;97430.59;;;9.24;100.00
37778;BME280;23615;51.506;7.678;2023-03-14T05:38:34;97428.63;;;9.34;100.00
37778;BME280;23615;51.506;7.678;2023-03-14T05:41:00;97416.59;;;9.42;100.00
37778;BME280;23615;51.506;7.678;2023-03-14T05:43:25;97416.34;;;9.38;100.00
37778;BME280;23615;51.506;7.678;2023-03-14T05:45:50;97409.03;;;9.25;100.00
37778;BME280;23615;51.506;7.678;2023-03-14T05:48:15;97417.34;;;9.14;100.00
37778;BME280;23615;51.506;7.678;2023-03-14T05:50:41;97426.41;;;9.47;100.00
37778;BME280;23615;51.506;7.678;2023-03-14T05:53:07;97408.28;;;9.49;100.00
37778;BME280;23615;51.506;7.678;2023-03-14T05:55:32;97421.38;;;9.45;100.00
37778;BME280;23615;51.506;7.678;2023-03-14T05:57:57;97400.78;;;9.27;100.00
37778;BME280;23615;51.506;7.678;2023-03-14T06:00:22;97401.97;;;9.39;100.00
37778;BME280;23615;51.506;7.678;2023-03-14T06:02:48;97415.97;;;9.50;100.00
37778;BME280;23615;51.506;7.678;2023-03-14T06:05:13;97414.91;;;9.51;100.00
37778;BME280;23615;51.506;7.678;2023-03-14T06:07:39;97416.59;;;9.42;100.00
37778;BME280;23615;51.506;7.678;2023-03-14T06:10:04;97412.44;;;9.31;100.00
37778;BME280;23615;51.506;7.678;2023-03-14T06:12:30;97399.19;;;9.26;100.00
37778;BME280;23615;51.506;7.678;2023-03-14T06:14:55;97401.06;;;9.20;100.00
37778;BME280;23615;51.506;7.678;2023-03-14T06:17:20;97403.22;;;9.47;100.00
37778;BME280;23615;51.506;7.678;2023-03-14T06:19:46;97399.91;;;9.31;100.00
37778;BME280;23615;51.506;7.678;2023-03-14T06:22:11;97401.03;;;9.25;100.00
37778;BME280;23615;51.506;7.678;2023-03-14T06:24:36;97392.91;;;9.12;100.00
37778;BME280;23615;51.506;7.678;2023-03-14T06:27:02;97391.91;;;9.02;100.00
37778;BME280;23615;51.506;7.678;2023-03-14T06:29:28;97394.13;;;9.24;100.00
37778;BME280;23615;51.506;7.678;2023-03-14T06:31:54;97386.09;;;9.00;100.00
37778;BME280;23615;51.506;7.678;2023-03-14T06:34:19;97381.28;;;9.02;100.00
37778;BME280;23615;51.506;7.678;2023-03-14T06:36:44;97381.06;;;8.94;100.00
37778;BME280;23615;51.506;7.678;2023-03-14T06:39:10;97388.09;;;9.14;100.00
37778;BME280;23615;51.506;7.678;2023-03-14T06:41:35;97389.16;;;9.18;100.00
37778;BME280;23615;51.506;7.678;2023-03-14T06:44:01;97377.09;;;9.25;100.00
37778;BME280;23615;51.506;7.678;2023-03-14T06:46:26;97386.22;;;9.19;100.00
37778;BME280;23615;51.506;7.678;2023-03-14T06:48:51;97393.69;;;9.12;100.00
37778;BME280;23615;51.506;7.678;2023-03-14T06:51:17;97395.81;;;9.15;100.00
37778;BME280;23615;51.506;7.678;2023-03-14T06:53:42;97397.63;;;9.20;100.00
37778;BME280;23615;51.506;7.678;2023-03-14T06:56:08;97395.34;;;9.08;100.00
37778;BME280;23615;51.506;7.678;2023-03-14T06:58:33;97394.56;;;9.36;100.00
37778;BME280;23615;51.506;7.678;2023-03-14T07:00:59;97391.59;;;9.09;100.00
37778;BME280;23615;51.506;7.678;2023-03-14T07:03:24;97391.53;;;9.19;100.00
37778;BME280;23615;51.506;7.678;2023-03-14T07:05:50;97404.03;;;9.19;100.00
37778;BME280;23615;51.506;7.678;2023-03-14T07:08:15;97394.75;;;9.11;100.00
37778;BME280;23615;51.506;7.678;2023-03-14T07:10:41;97399.13;;;9.31;100.00
37778;BME280;23615;51.506;7.678;2023-03-14T07:13:06;97399.28;;;9.45;100.00
37778;BME280;23615;51.506;7.678;2023-03-14T07:15:31;97394.56;;;9.36;100.00
37778;BME280;23615;51.506;7.678;2023-03-14T07:17:57;97405.69;;;9.38;100.00
37778;BME280;23615;51.506;7.678;2023-03-14T07:20:22;97406.69;;;9.48;100.00
37778;BME280;23615;51.506;7.678;2023-03-14T07:22:49;97411.31;;;9.37;100.00
37778;BME280;23615;51.506;7.678;2023-03-14T07:25:15;97401.19;;;9.39;100.00
37778;BME280;23615;51.506;7.678;2023-03-14T07:27:43;97415.41;;;9.24;100.00
37778;BME280;23615;51.506;7.678;2023-03-14T07:30:09;97412.84;;;9.43;100.00
37778;BME280;23615;51.506;7.678;2023-03-14T07:32:34;97413.00;;;9.28;100.00
37778;BME280;23615;51.506;7.678;2023-03-14T07:35:00;97414.44;;;9.44;100.00
37778;BME280;23615;51.506;7.678;2023-03-14T07:37:25;97411.63;;;9.30;100.00
37778;BME280;23615;51.506;7.678;2023-03-14T07:39:50;97418.34;;;9.23;100.00
37778;BME280;23615;51.506;7.678;2023-03-14T07:42:15;97419.22;;;9.13;100.00
37778;BME280;23615;51.506;7.678;2023-03-14T07:44:41;97423.34;;;9.29;100.00
37778;BME280;23615;51.506;7.678;2023-03-14T07:47:06;97419.84;;;9.34;100.00
37778;BME280;23615;51.506;7.678;2023-03-14T07:49:31;97425.91;;;9.45;100.00
37778;BME280;23615;51.506;7.678;2023-03-14T07:51:57;97415.81;;;9.42;100.00
37778;BME280;23615;51.506;7.678;2023-03-14T07:54:23;97422.72;;;9.43;100.00
37778;BME280;23615;51.506;7.678;2023-03-14T07:56:49;97420.66;;;9.34;100.00
37778;BME280;23615;51.506;7.678;2023-03-14T07:59:15;97418.88;;;9.54;100.00
37778;BME280;23615;51.506;7.678;2023-03-14T08:01:40;97424.75;;;9.51;100.00
37778;BME280;23615;51.506;7.678;2023-03-14T08:04:05;97419.34;;;9.61;100.00
37778;BME280;23615;51.506;7.678;2023-03-14T08:06:30;97420.66;;;9.63;100.00
37778;BME280;23615;51.506;7.678;2023-03-14T08:08:56;97425.38;;;9.71;100.00
37778;BME280;23615;51.506;7.678;2023-03-14T08:11:21;97426.25;;;9.91;100.00
37778;BME280;23615;51.506;7.678;2023-03-14T08:13:46;97427.03;;;9.91;100.00
37778;BME280;23615;51.506;7.678;2023-03-14T08:16:15;97420.25;;;9.75;100.00
37778;BME280;23615;51.506;7.678;2023-03-14T08:18:41;97435.41;;;9.80;100.00
37778;BME280;23615;51.506;7.678;2023-03-14T08:21:07;97438.25;;;9.59;100.00
37778;BME280;23615;51.506;7.678;2023-03-14T08:23:32;97439.31;;;9.63;100.00
37778;BME280;23615;51.506;7.678;2023-03-14T08:25:57;97441.19;;;9.58;100.00
37778;BME280;23615;51.506;7.678;2023-03-14T08:28:22;97437.88;;;9.71;100.00
37778;BME280;23615;51.506;7.678;2023-03-14T08:30:48;97438.53;;;9.87;100.00
37778;BME280;23615;51.506;7.678;2023-03-14T08:33:13;97435.69;;;10.02;100.00
37778;BME280;23615;51.506;7.678;2023-03-14T08:35:38;97441.88;;;9.97;100.00
37778;BME280;23615;51.506;7.678;2023-03-14T08:38:04;97439.22;;;9.97;100.00
37778;BME280;23615;51.506;7.678;2023-03-14T08:40:29;97434.78;;;10.11;100.00
37778;BME280;23615;51.506;7.678;2023-03-14T08:42:55;97441.09;;;10.21;100.00
37778;BME280;23615;51.506;7.678;2023-03-14T08:45:20;97447.53;;;10.20;100.00
37778;BME280;23615;51.506;7.678;2023-03-14T08:47:45;97439.03;;;10.18;100.00
37778;BME280;23615;51.506;7.678;2023-03-14T08:50:11;97447.47;;;10.25;100.00
37778;BME280;23615;51.506;7.678;2023-03-14T08:52:38;97442.84;;;10.30;100.00
37778;BME280;23615;51.506;7.678;2023-03-14T08:55:06;97451.28;;;10.19;100.00
37778;BME280;23615;51.506;7.678;2023-03-14T08:57:32;97451.34;;;10.08;100.00
37778;BME280;23615;51.506;7.678;2023-03-14T08:59:57;97461.63;;;10.20;100.00
37778;BME280;23615;51.506;7.678;2023-03-14T09:02:24;97453.22;;;10.08;100.00
37778;BME280;23615;51.506;7.678;2023-03-14T09:04:50;97461.44;;;10.11;100.00
37778;BME280;23615;51.506;7.678;2023-03-14T09:07:16;97451.63;;;10.07;100.00
37778;BME280;23615;51.506;7.678;2023-03-14T09:09:41;97456.81;;;10.22;100.00
37778;BME280;23615;51.506;7.678;2023-03-14T09:12:06;97459.72;;;10.26;100.00
37778;BME280;23615;51.506;7.678;2023-03-14T09:14:32;97462.25;;;10.36;100.00
37778;BME280;23615;51.506;7.678;2023-03-14T09:16:57;97457.81;;;10.50;100.00
37778;BME280;23615;51.506;7.678;2023-03-14T09:19:23;97459.41;;;10.51;100.00
37778;BME280;23615;51.506;7.678;2023-03-14T09:21:48;97451.13;;;10.53;100.00
37778;BME280;23615;51.506;7.678;2023-03-14T09:24:14;97454.31;;;10.55;100.00
37778;BME280;23615;51.506;7.678;2023-03-14T09:26:39;97450.88;;;10.73;100.00
37778;BME280;23615;51.506;7.678;2023-03-14T09:29:05;97458.06;;;10.72;100.00
37778;BME280;23615;51.506;7.678;2023-03-14T09:31:30;97457.84;;;10.69;100.00
37778;BME280;23615;51.506;7.678;2023-03-14T09:33:55;97457.19;;;10.77;100.00
37778;BME280;23615;51.506;7.678;2023-03-14T09:36:21;97465.59;;;10.65;100.00
37778;BME280;23615;51.506;7.678;2023-03-14T09:38:46;97467.19;;;10.66;100.00
37778;BME280;23615;51.506;7.678;2023-03-14T09:41:15;97460.38;;;10.79;100.00
37778;BME280;23615;51.506;7.678;2023-03-14T09:43:42;97462.91;;;10.70;100.00
37778;BME280;23615;51.506;7.678;2023-03-14T09:46:09;97465.03;;;10.68;100.00
37778;BME280;23615;51.506;7.678;2023-03-14T09:48:36;97472.63;;;10.80;100.00
37778;BME280;23615;51.506;7.678;2023-03-14T09:51:05;97486.38;;;10.68;100.00
37778;BME280;23615;51.506;7.678;2023-03-14T09:53:41;97511.00;;;10.60;100.00
37778;BME280;23615;51.506;7.678;2023-03-14T09:56:14;97521.00;;;10.26;100.00
37778;BME280;23615;51.506;7.678;2023-03-14T09:58:42;97528.16;;;10.01;100.00
37778;BME280;23615;51.506;7.678;2023-03-14T10:01:14;97520.47;;;9.95;100.00
37778;BME280;23615;51.506;7.678;2023-03-14T10:03:41;97531.97;;;9.90;100.00
37778;BME280;23615;51.506;7.678;2023-03-14T10:06:11;97548.59;;;9.77;100.00
37778;BME280;23615;51.506;7.678;2023-03-14T10:08:39;97557.22;;;9.64;100.00
37778;BME280;23615;51.506;7.678;2023-03-14T10:11:05;97586.59;;;9.49;100.00
37778;BME280;23615;51.506;7.678;2023-03-14T10:13:30;97606.13;;;9.29;100.00
37778;BME280;23615;51.506;7.678;2023-03-14T10:16:01;97622.81;;;8.90;98.47
37778;BME280;23615;51.506;7.678;2023-03-14T10:18:29;97628.16;;;8.80;99.56
37778;BME280;23615;51.506;7.678;2023-03-14T10:21:04;97635.59;;;8.78;99.66
37778;BME280;23615;51.506;7.678;2023-03-14T10:23:33;97632.72;;;8.59;99.90
37778;BME280;23615;51.506;7.678;2023-03-14T10:26:06;97655.31;;;8.72;100.00
37778;BME280;23615;51.506;7.678;2023-03-14T10:28:42;97677.34;;;8.68;100.00
37778;BME280;23615;51.506;7.678;2023-03-14T10:31:08;97673.13;;;8.56;100.00
37778;BME280;23615;51.506;7.678;2023-03-14T10:33:35;97693.06;;;8.44;100.00
37778;BME280;23615;51.506;7.678;2023-03-14T10:36:15;97695.19;;;8.52;100.00
37778;BME280;23615;51.506;7.678;2023-03-14T10:38:42;97708.97;;;8.28;100.00
37778;BME280;23615;51.506;7.678;2023-03-14T10:41:18;97723.06;;;8.19;100.00
37778;BME280;23615;51.506;7.678;2023-03-14T10:43:44;97736.84;;;8.11;100.00
37778;BME280;23615;51.506;7.678;2023-03-14T10:46:14;97753.06;;;8.09;100.00
37778;BME280;23615;51.506;7.678;2023-03-14T10:48:41;97759.16;;;8.20;100.00
37778;BME280;23615;51.506;7.678;2023-03-14T10:51:10;97775.63;;;8.12;100.00
37778;BME280;23615;51.506;7.678;2023-03-14T10:53:44;97787.84;;;8.08;100.00
37778;BME280;23615;51.506;7.678;2023-03-14T10:56:20;97792.03;;;7.94;99.62
37778;BME280;23615;51.506;7.678;2023-03-14T10:58:48;97790.91;;;7.74;100.00
37778;BME280;23615;51.506;7.678;2023-03-14T11:01:31;97808.69;;;7.69;100.00
37778;BME280;23615;51.506;7.678;2023-03-14T11:04:01;97830.50;;;7.81;100.00
37778;BME280;23615;51.506;7.678;2023-03-14T11:06:44;97867.09;;;7.27;100.00
37778;BME280;23615;51.506;7.678;2023-03-14T11:09:21;97895.94;;;7.23;100.00
37778;BME280;23615;51.506;7.678;2023-03-14T11:11:48;97869.81;;;7.00;100.00
37778;BME280;23615;51.506;7.678;2023-03-14T11:14:27;97896.59;;;7.03;100.00
37778;BME280;23615;51.506;7.678;2023-03-14T11:20:22;97912.75;;;7.02;100.00
37778;BME280;23615;51.506;7.678;2023-03-14T11:23:08;97931.94;;;6.82;100.00
37778;BME280;23615;51.506;7.678;2023-03-14T11:25:47;97953.63;;;6.79;100.00
37778;BME280;23615;51.506;7.678;2023-03-14T11:28:18;97975.44;;;6.86;100.00
37778;BME280;23615;51.506;7.678;2023-03-14T11:30:53;98019.09;;;6.79;100.00
37778;BME280;23615;51.506;7.678;2023-03-14T11:33:37;98005.63;;;6.20;100.00
37778;BME280;23615;51.506;7.678;2023-03-14T11:36:10;98049.53;;;6.16;100.00
37778;BME280;23615;51.506;7.678;2023-03-14T11:38:46;98088.72;;;5.97;100.00
37778;BME280;23615;51.506;7.678;2023-03-14T11:41:20;98063.59;;;5.99;100.00
37778;BME280;23615;51.506;7.678;2023-03-14T11:43:54;98065.44;;;5.82;99.21
37778;BME280;23615;51.506;7.678;2023-03-14T11:46:26;98076.72;;;5.78;98.53
37778;BME280;23615;51.506;7.678;2023-03-14T11:52:03;98107.81;;;5.99;98.87
37778;BME280;23615;51.506;7.678;2023-03-14T11:57:10;98141.31;;;5.93;97.61
37778;BME280;23615;51.506;7.678;2023-03-14T11:59:57;98132.69;;;5.70;96.73
37778;BME280;23615;51.506;7.678;2023-03-14T12:03:02;98151.38;;;5.80;95.68
37778;BME280;23615;51.506;7.678;2023-03-14T12:10:44;98169.00;;;5.74;95.56
37778;BME280;23615;51.506;7.678;2023-03-14T12:13:13;98171.56;;;5.69;95.91
37778;BME280;23615;51.506;7.678;2023-03-14T12:15:41;98207.28;;;5.55;96.37
37778;BME280;23615;51.506;7.678;2023-03-14T12:18:26;98188.50;;;5.56;93.49
37778;BME280;23615;51.506;7.678;2023-03-14T12:20:58;98205.50;;;5.72;94.17
37778;BME280;23615;51.506;7.678;2023-03-14T12:23:26;98212.47;;;5.78;95.24
37778;BME280;23615;51.506;7.678;2023-03-14T12:28:36;98217.97;;;5.88;94.89
37778;BME280;23615;51.506;7.678;2023-03-14T12:39:19;98249.69;;;6.00;91.60
37778;BME280;23615;51.506;7.678;2023-03-14T12:42:06;98248.31;;;5.97;92.06
37778;BME280;23615;51.506;7.678;2023-03-14T12:44:50;98261.22;;;5.94;92.22
37778;BME280;23615;51.506;7.678;2023-03-14T12:49:52;98266.81;;;6.09;92.01
37778;BME280;23615;51.506;7.678;2023-03-14T12:52:22;98274.00;;;6.14;91.74
37778;BME280;23615;51.506;7.678;2023-03-14T12:57:40;98283.69;;;6.36;91.85
37778;BME280;23615;51.506;7.678;2023-03-14T13:00:30;98293.22;;;6.37;89.55
37778;BME280;23615;51.506;7.678;2023-03-14T13:03:19;98300.94;;;6.11;91.08
37778;BME280;23615;51.506;7.678;2023-03-14T13:06:01;98305.41;;;6.22;92.35
37778;BME280;23615;51.506;7.678;2023-03-14T13:08:43;98310.22;;;6.25;91.03
37778;BME280;23615;51.506;7.678;2023-03-14T13:11:12;98315.25;;;6.10;91.62
37778;BME280;23615;51.506;7.678;2023-03-14T13:13:45;98321.13;;;6.28;91.64
37778;BME280;23615;51.506;7.678;2023-03-14T13:16:17;98329.88;;;6.29;92.40
37778;BME280;23615;51.506;7.678;2023-03-14T13:18:45;98339.34;;;6.25;92.34
37778;BME280;23615;51.506;7.678;2023-03-14T13:21:18;98351.25;;;6.11;92.06
37778;BME280;23615;51.506;7.678;2023-03-14T13:26:21;98394.03;;;5.09;95.13
37778;BME280;23615;51.506;7.678;2023-03-14T13:28:46;98386.22;;;5.26;97.43
37778;BME280;23615;51.506;7.678;2023-03-14T13:31:25;98394.59;;;5.00;98.40
37778;BME280;23615;51.506;7.678;2023-03-14T13:33:58;98410.41;;;4.88;98.65
37778;BME280;23615;51.506;7.678;2023-03-14T13:36:25;98406.28;;;4.80;100.00
37778;BME280;23615;51.506;7.678;2023-03-14T13:38:59;98423.47;;;4.83;100.00
37778;BME280;23615;51.506;7.678;2023-03-14T13:41:25;98424.53;;;4.94;100.00